Time;durP1;ratioP1;P1;durP2;ratioP2;P2;SDS_P1;SDS_P2;PMS_P1;PMS_P2;Temp;Humidity;BMP_temperature;BMP_pressure;BME280_temperature;BME280_humidity;BME280_pressure;Samples;Min_cycle;Max_cycle;Signal;HPM_P1;HPM_P2
2023/09/13 00:01:23;;;;;;;9.82;6.25;;;;;;;17.81;100.00;98128.91;6111870;19;20014;-74
2023/09/13 00:03:23;;;;;;;8.80;5.80;;;;;;;17.76;100.00;98126.59;6112626;19;20027;-73
2023/09/13 00:05:23;;;;;;;11.25;5.75;;;;;;;17.76;100.00;98126.59;6111033;19;20017;-74
2023/09/13 00:07:24;;;;;;;10.55;5.80;;;;;;;17.71;100.00;98124.34;6110824;19;20023;-74
2023/09/13 00:09:24;;;;;;;8.48;5.75;;;;;;;17.75;100.00;98127.03;6110916;19;20326;-74
2023/09/13 00:11:24;;;;;;;13.20;5.97;;;;;;;17.69;100.00;98124.72;6112032;19;20014;-74
2023/09/13 00:13:25;;;;;;;10.68;6.07;;;;;;;17.62;100.00;98119.28;6110880;19;20023;-74
2023/09/13 00:15:25;;;;;;;13.80;6.75;;;;;;;17.65;100.00;98126.03;6111169;19;20209;-74
2023/09/13 00:17:27;;;;;;;11.63;5.53;;;;;;;17.65;100.00;98120.44;6111661;19;20262;-74
2023/09/13 00:19:27;;;;;;;8.00;5.68;;;;;;;17.66;100.00;98128.41;6109941;19;20007;-73
2023/09/13 00:21:28;;;;;;;12.02;5.93;;;;;;;17.65;100.00;98126.03;6111266;19;20010;-74
2023/09/13 00:23:28;;;;;;;8.40;4.93;;;;;;;17.64;100.00;98127.25;6112228;19;20018;-74
2023/09/13 00:25:28;;;;;;;12.65;5.95;;;;;;;17.56;100.00;98111.84;6110106;19;20332;-73
2023/09/13 00:27:29;;;;;;;11.60;5.93;;;;;;;17.52;100.00;98120.31;6109103;19;20599;-74
2023/09/13 00:29:33;;;;;;;8.23;5.32;;;;;;;17.46;100.00;98112.84;6109576;19;20011;-74
2023/09/13 00:31:33;;;;;;;7.90;5.78;;;;;;;17.46;100.00;98104.47;6111325;19;20002;-74
2023/09/13 00:33:34;;;;;;;6.55;5.20;;;;;;;17.45;100.00;98105.69;6110367;19;20078;-74
2023/09/13 00:35:35;;;;;;;8.57;5.45;;;;;;;17.44;100.00;98098.53;6110865;19;20006;-74
2023/09/13 00:37:35;;;;;;;10.02;5.80;;;;;;;17.40;100.00;98091.00;6107272;19;20011;-74
2023/09/13 00:39:35;;;;;;;9.75;5.97;;;;;;;17.39;100.00;98085.88;6109260;19;20013;-74
2023/09/13 00:41:36;;;;;;;9.93;5.32;;;;;;;17.35;100.00;98076.75;6111363;19;20406;-74
2023/09/13 00:43:36;;;;;;;9.65;5.78;;;;;;;17.37;100.00;98069.50;6109870;19;20002;-74
2023/09/13 00:45:37;;;;;;;8.65;5.90;;;;;;;17.37;100.00;98069.50;6109454;19;20006;-74
2023/09/13 00:47:41;;;;;;;8.18;5.25;;;;;;;17.34;100.00;98078.75;6109418;19;20006;-74
2023/09/13 00:49:42;;;;;;;9.32;6.10;;;;;;;17.35;100.00;98073.94;6110668;19;20043;-73
2023/09/13 00:51:42;;;;;;;10.02;6.03;;;;;;;17.36;100.00;98073.50;6109691;19;22144;-74
2023/09/13 00:53:43;;;;;;;9.20;6.18;;;;;;;17.37;100.00;98077.09;6111128;19;20410;-73
2023/09/13 00:55:46;;;;;;;10.70;6.63;;;;;;;17.33;100.00;98070.81;6108215;19;20006;-73
2023/09/13 00:57:50;;;;;;;8.32;5.47;;;;;;;17.32;100.00;98064.44;6108423;19;20047;-74
2023/09/13 00:59:51;;;;;;;12.27;6.40;;;;;;;17.28;100.00;98074.09;6108773;19;20021;-74
2023/09/13 01:01:51;;;;;;;10.00;5.40;;;;;;;17.21;100.00;98069.47;6109332;19;20011;-74
2023/09/13 01:03:52;;;;;;;10.48;6.22;;;;;;;17.19;100.00;98073.91;6109151;19;20009;-74
2023/09/13 01:05:54;;;;;;;10.57;6.03;;;;;;;17.13;100.00;98062.47;6108722;19;20040;-74
2023/09/13 01:07:54;;;;;;;8.57;6.07;;;;;;;17.15;100.00;98057.22;6108112;19;20006;-74
2023/09/13 01:09:55;;;;;;;9.93;6.68;;;;;;;17.18;100.00;98055.56;6107788;19;20376;-74
2023/09/13 01:11:55;;;;;;;10.63;6.63;;;;;;;17.17;100.00;98059.59;6110314;19;20014;-73
2023/09/13 01:13:56;;;;;;;10.68;5.95;;;;;;;17.10;100.00;98071.69;6110128;19;20006;-74
2023/09/13 01:16:17;;;;;;;14.13;6.70;;;;;;;16.99;100.00;98065.56;6107814;19;20010;-73
2023/09/13 01:18:24;;;;;;;12.60;6.22;;;;;;;16.92;100.00;98066.47;6005236;19;2004656;-74
2023/09/13 01:20:34;;;;;;;9.95;6.07;;;;;;;16.89;100.00;98069.34;6110270;19;20010;-73
2023/09/13 01:23:02;;;;;;;12.13;5.97;;;;;;;16.87;100.00;98060.59;6110916;19;20494;-74
2023/09/13 01:25:25;;;;;;;11.55;6.85;;;;;;;16.84;100.00;98062.25;6109064;19;20009;-73
2023/09/13 01:27:38;;;;;;;10.07;6.18;;;;;;;16.78;100.00;98059.16;6108550;19;19999;-74
2023/09/13 01:29:38;;;;;;;9.75;6.22;;;;;;;16.74;100.00;98060.47;6109381;19;20014;-74
2023/09/13 01:31:39;;;;;;;8.93;6.78;;;;;;;16.70;100.00;98052.16;6108822;19;20034;-74
2023/09/13 01:33:39;;;;;;;10.23;6.78;;;;;;;16.70;100.00;98057.72;6110373;19;20227;-74
2023/09/13 01:35:39;;;;;;;12.50;6.35;;;;;;;16.67;100.00;98057.78;6108149;19;19998;-74
2023/09/13 01:37:40;;;;;;;12.25;6.97;;;;;;;16.64;100.00;98059.44;6105198;19;20014;-74
2023/09/13 01:39:40;;;;;;;9.73;5.95;;;;;;;16.62;100.00;98049.88;6108179;19;20316;-74
2023/09/13 01:41:54;;;;;;;9.18;6.30;;;;;;;16.58;100.00;98063.94;6109500;19;20014;-73
2023/09/13 01:43:56;;;;;;;9.52;5.95;;;;;;;16.52;100.00;98060.06;6107603;19;20066;-73
2023/09/13 01:45:58;;;;;;;7.95;6.28;;;;;;;16.44;100.00;98070.56;6107927;19;20013;-74
2023/09/13 01:47:59;;;;;;;10.25;6.93;;;;;;;16.34;100.00;98065.19;6107655;19;20029;-74
2023/09/13 01:50:00;;;;;;;10.55;6.28;;;;;;;16.32;100.00;98068.41;6102131;19;20025;-74
2023/09/13 01:52:04;;;;;;;11.43;7.65;;;;;;;16.27;100.00;98060.50;6108010;19;20058;-74
2023/09/13 01:54:04;;;;;;;17.05;6.97;;;;;;;16.24;100.00;98072.53;6108562;19;20003;-74
2023/09/13 01:56:04;;;;;;;9.52;6.90;;;;;;;16.24;100.00;98073.31;6106565;19;20561;-74
2023/09/13 01:58:05;;;;;;;9.80;6.05;;;;;;;16.22;100.00;98077.78;6106312;19;20339;-74
2023/09/13 02:00:06;;;;;;;10.82;7.22;;;;;;;16.18;100.00;98069.44;6106894;19;20541;-74
2023/09/13 02:02:06;;;;;;;11.43;6.57;;;;;;;16.16;100.00;98076.66;6108535;19;20346;-74
2023/09/13 02:04:07;;;;;;;8.73;6.43;;;;;;;16.11;100.00;98077.94;6107300;19;19995;-74
2023/09/13 02:06:07;;;;;;;9.00;6.55;;;;;;;16.09;100.00;98074.78;6104387;19;20443;-74
2023/09/13 02:08:07;;;;;;;12.75;6.72;;;;;;;16.08;100.00;98073.22;6106836;19;20027;-74
2023/09/13 02:10:08;;;;;;;11.45;6.68;;;;;;;16.08;100.00;98078.00;6106350;19;20002;-74
2023/09/13 02:12:13;;;;;;;8.52;5.70;;;;;;;16.07;100.00;98080.00;6107672;19;20055;-74
2023/09/13 02:14:13;;;;;;;7.18;5.40;;;;;;;16.09;100.00;98077.56;6108758;19;20002;-74
2023/09/13 02:16:19;;;;;;;9.27;5.93;;;;;;;16.10;100.00;98087.53;6106528;19;20310;-74
2023/09/13 02:18:19;;;;;;;7.03;6.05;;;;;;;16.04;100.00;98083.63;6106303;19;20461;-74
2023/09/13 02:20:19;;;;;;;8.30;5.65;;;;;;;16.05;100.00;98085.19;6111156;19;20105;-74
2023/09/13 02:22:19;;;;;;;8.57;5.45;;;;;;;16.05;100.00;98090.78;6112930;19;20007;-74
2023/09/13 02:24:20;;;;;;;7.07;6.25;;;;;;;16.07;100.00;98085.59;6111051;19;20006;-74
2023/09/13 02:26:24;;;;;;;8.65;6.15;;;;;;;16.11;100.00;98096.69;6113463;19;20208;-73
2023/09/13 02:28:24;;;;;;;8.70;6.30;;;;;;;16.07;100.00;98093.97;6112143;19;20070;-74
2023/09/13 02:30:25;;;;;;;11.95;6.28;;;;;;;16.05;100.00;98107.53;6112206;19;20538;-74
2023/09/13 02:32:25;;;;;;;11.32;7.28;;;;;;;15.91;100.00;98099.41;6111353;19;20012;-74
2023/09/13 02:34:25;;;;;;;8.43;5.78;;;;;;;15.84;100.00;98099.50;6112105;19;20731;-74
2023/09/13 02:36:26;;;;;;;10.50;6.65;;;;;;;15.83;100.00;98104.31;6111280;19;20750;-74
2023/09/13 02:38:26;;;;;;;15.32;6.97;;;;;;;15.71;100.00;98102.88;6109077;19;20555;-74
2023/09/13 02:40:27;;;;;;;9.70;6.28;;;;;;;15.64;100.00;98103.00;6110105;19;20356;-73
2023/09/13 02:42:27;;;;;;;11.02;6.82;;;;;;;15.59;100.00;98095.06;6111768;19;20469;-74
2023/09/13 02:44:30;;;;;;;9.07;6.50;;;;;;;15.61;100.00;98097.47;6112091;19;20044;-74
2023/09/13 02:46:30;;;;;;;12.40;6.10;;;;;;;15.59;100.00;98099.84;6112059;19;20007;-74
2023/09/13 02:48:30;;;;;;;8.55;6.50;;;;;;;15.56;100.00;98093.13;6110176;19;20014;-74
2023/09/13 02:50:31;;;;;;;8.43;6.10;;;;;;;15.54;100.00;98105.91;6111513;19;20318;-73
2023/09/13 02:52:32;;;;;;;7.80;5.50;;;;;;;15.51;100.00;98115.09;6110897;19;20016;-74
2023/09/13 02:54:33;;;;;;;9.67;6.27;;;;;;;15.55;100.00;98118.63;6108880;19;20037;-74
2023/09/13 02:56:33;;;;;;;14.38;6.88;;;;;;;15.57;100.00;98119.81;6111727;19;20583;-74
2023/09/13 02:58:34;;;;;;;8.68;6.40;;;;;;;15.55;100.00;98116.63;6109220;19;20016;-74
2023/09/13 03:00:34;;;;;;;11.68;7.15;;;;;;;15.58;100.00;98106.66;6106823;19;20714;-74
2023/09/13 03:02:35;;;;;;;8.55;6.45;;;;;;;15.57;100.00;98105.84;6105974;19;20019;-74
2023/09/13 03:04:35;;;;;;;11.95;6.60;;;;;;;15.59;100.00;98109.00;6109953;19;20043;-74
2023/09/13 03:06:38;;;;;;;8.57;6.53;;;;;;;15.64;100.00;98110.59;6111347;19;20026;-74
2023/09/13 03:08:39;;;;;;;10.13;7.60;;;;;;;15.64;100.00;98111.38;6109216;19;20003;-74
2023/09/13 03:10:39;;;;;;;10.57;6.15;;;;;;;15.68;100.00;98102.94;6107862;19;20013;-74
2023/09/13 03:12:39;;;;;;;11.60;7.60;;;;;;;15.70;100.00;98097.72;6110700;19;20007;-74
2023/09/13 03:14:40;;;;;;;8.27;6.15;;;;;;;15.74;100.00;98112.41;6107951;19;20045;-74
2023/09/13 03:16:40;;;;;;;11.98;6.80;;;;;;;15.81;100.00;98105.94;6107361;19;21139;-74
2023/09/13 03:18:41;;;;;;;9.95;6.80;;;;;;;15.84;100.00;98108.66;6108142;19;20923;-74
2023/09/13 03:20:41;;;;;;;8.52;6.05;;;;;;;15.92;100.00;98103.78;6108552;19;20088;-74
2023/09/13 03:22:42;;;;;;;9.82;5.72;;;;;;;15.98;100.00;98110.47;6104639;19;20015;-74
2023/09/13 03:24:42;;;;;;;9.95;5.32;;;;;;;16.00;100.00;98099.66;6105041;19;20009;-73
2023/09/13 03:26:42;;;;;;;7.45;5.13;;;;;;;16.06;100.00;98102.75;6109503;19;20011;-74
2023/09/13 03:28:46;;;;;;;7.63;4.80;;;;;;;16.05;100.00;98093.56;6108663;19;20330;-74
2023/09/13 03:30:46;;;;;;;5.50;4.50;;;;;;;16.04;100.00;98092.00;6110482;19;20287;-73
2023/09/13 03:32:46;;;;;;;7.45;4.28;;;;;;;16.06;100.00;98094.38;6108174;19;20024;-74
2023/09/13 03:34:46;;;;;;;6.93;3.80;;;;;;;16.07;100.00;98087.59;6108559;19;20345;-74
2023/09/13 03:36:47;;;;;;;6.10;3.65;;;;;;;16.08;100.00;98084.38;6107344;19;20030;-74
2023/09/13 03:38:47;;;;;;;5.93;3.50;;;;;;;16.10;100.00;98084.72;6108572;19;20010;-74
2023/09/13 03:40:48;;;;;;;5.75;3.42;;;;;;;16.12;100.00;98084.31;6109808;19;20011;-74
2023/09/13 03:42:48;;;;;;;6.18;3.88;;;;;;;16.14;100.00;98082.69;6109592;19;20384;-74
2023/09/13 03:44:48;;;;;;;9.95;3.67;;;;;;;16.14;100.00;98085.47;6109014;19;20023;-74
2023/09/13 03:46:49;;;;;;;5.82;3.45;;;;;;;16.15;100.00;98084.25;6109270;19;20472;-74
2023/09/13 03:48:49;;;;;;;4.35;3.33;;;;;;;16.18;100.00;98090.97;6109160;19;20010;-74
2023/09/13 03:50:50;;;;;;;5.60;4.03;;;;;;;16.13;100.00;98085.88;6109021;19;20482;-74
2023/09/13 03:52:50;;;;;;;5.05;3.80;;;;;;;16.08;100.00;98070.41;6112337;19;20011;-74
2023/09/13 03:54:50;;;;;;;6.75;4.55;;;;;;;15.99;100.00;98076.53;6111489;19;20106;-74
2023/09/13 03:56:51;;;;;;;11.98;4.57;;;;;;;15.87;100.00;98084.72;6110616;19;20454;-74
2023/09/13 03:58:51;;;;;;;8.30;4.60;;;;;;;15.79;100.00;98091.59;6110671;19;20371;-74
2023/09/13 04:00:52;;;;;;;8.73;4.80;;;;;;;15.73;100.00;98086.53;6112119;19;20011;-74
2023/09/13 04:02:53;;;;;;;8.07;4.97;;;;;;;15.64;100.00;98082.69;6111740;19;20467;-74
2023/09/13 04:04:54;;;;;;;9.52;4.93;;;;;;;15.57;100.00;98083.56;6111132;19;20078;-74
2023/09/13 04:06:54;;;;;;;9.63;4.50;;;;;;;15.50;100.00;98080.06;6111949;19;20007;-74
2023/09/13 04:08:55;;;;;;;7.65;4.88;;;;;;;15.44;100.00;98080.53;6108266;19;20337;-74
2023/09/13 04:10:56;;;;;;;8.45;4.90;;;;;;;15.41;100.00;98073.03;6112183;19;20003;-74
2023/09/13 04:12:56;;;;;;;6.20;5.15;;;;;;;15.39;100.00;98080.22;6110310;19;20050;-74
2023/09/13 04:14:57;;;;;;;6.70;4.63;;;;;;;15.31;100.00;98073.19;6110281;19;20010;-74
2023/09/13 04:16:57;;;;;;;6.03;4.68;;;;;;;15.24;100.00;98074.06;6111409;19;20054;-74
2023/09/13 04:18:57;;;;;;;9.15;4.55;;;;;;;15.18;100.00;98073.72;6109746;19;20342;-74
2023/09/13 04:20:58;;;;;;;7.10;4.20;;;;;;;15.21;100.00;98071.31;6112375;19;20011;-74
2023/09/13 04:22:58;;;;;;;6.53;4.05;;;;;;;15.26;100.00;98070.84;6111406;19;20011;-74
2023/09/13 04:24:58;;;;;;;6.63;4.00;;;;;;;15.24;100.00;98074.06;6110383;19;20042;-74
2023/09/13 04:26:59;;;;;;;6.82;4.18;;;;;;;15.24;100.00;98085.22;6110645;19;20003;-74
2023/09/13 04:28:59;;;;;;;8.43;4.53;;;;;;;15.23;100.00;98088.44;6109549;19;20014;-74
2023/09/13 04:31:00;;;;;;;7.75;3.88;;;;;;;15.15;100.00;98099.66;6111418;19;20065;-74
2023/09/13 04:33:02;;;;;;;8.80;4.57;;;;;;;15.08;100.00;98113.69;6112074;19;20010;-73
2023/09/13 04:35:03;;;;;;;9.73;5.13;;;;;;;15.08;100.00;98110.88;6109864;19;20581;-74
2023/09/13 04:37:06;;;;;;;7.38;4.55;;;;;;;15.02;100.00;98103.41;6108630;19;20013;-74
2023/09/13 04:39:06;;;;;;;9.57;4.53;;;;;;;14.98;100.00;98117.38;6109212;19;20152;-74
2023/09/13 04:41:13;;;;;;;10.52;4.70;;;;;;;14.92;100.00;98110.69;6110158;19;20543;-74
2023/09/13 04:43:13;;;;;;;8.52;4.55;;;;;;;14.90;100.00;98115.88;6106363;19;20006;-74
2023/09/13 04:45:13;;;;;;;9.10;4.75;;;;;;;14.82;100.00;98112.41;6109218;19;20363;-74
2023/09/13 04:47:14;;;;;;;9.30;4.78;;;;;;;14.81;100.00;98113.59;6109815;19;20010;-74
2023/09/13 04:49:14;;;;;;;11.35;4.82;;;;;;;14.79;100.00;98115.19;6108695;19;20006;-73
2023/09/13 04:51:15;;;;;;;8.65;5.43;;;;;;;14.74;100.00;98112.88;6110970;19;20070;-73
2023/09/13 04:53:15;;;;;;;8.13;5.28;;;;;;;14.66;100.00;98114.97;6110496;19;20035;-74
2023/09/13 04:55:18;;;;;;;9.48;5.70;;;;;;;14.67;100.00;98110.19;6109637;19;20006;-74
2023/09/13 04:57:19;;;;;;;8.18;4.85;;;;;;;14.66;100.00;98108.59;6109101;19;20035;-74
2023/09/13 04:59:24;;;;;;;11.55;5.07;;;;;;;14.69;100.00;98105.78;6108700;19;20010;-74
2023/09/13 05:01:25;;;;;;;9.25;5.53;;;;;;;14.68;100.00;98108.97;6110233;19;20017;-74
2023/09/13 05:03:25;;;;;;;7.32;5.30;;;;;;;14.68;100.00;98114.53;6109217;19;20340;-74
2023/09/13 05:05:25;;;;;;;8.52;6.10;;;;;;;14.66;100.00;98114.97;6109306;19;20015;-74
2023/09/13 05:07:26;;;;;;;10.13;5.95;;;;;;;14.63;100.00;98115.78;6109898;19;20011;-74
2023/09/13 05:09:26;;;;;;;9.32;6.93;;;;;;;14.63;100.00;98126.91;6108619;19;20006;-73
2023/09/13 05:11:26;;;;;;;9.05;5.78;;;;;;;14.68;100.00;98125.69;6109791;19;20025;-74
2023/09/13 05:13:27;;;;;;;9.23;5.85;;;;;;;14.72;100.00;98121.63;6108520;19;20900;-74
2023/09/13 05:15:27;;;;;;;13.63;5.78;;;;;;;14.80;100.00;98116.78;6108884;19;20425;-74
2023/09/13 05:17:29;;;;;;;8.68;6.13;;;;;;;14.79;100.00;98118.00;6109771;19;20037;-74
2023/09/13 05:19:29;;;;;;;8.38;6.13;;;;;;;14.79;100.00;98129.13;6108622;19;20078;-74
2023/09/13 05:21:30;;;;;;;8.57;5.82;;;;;;;14.83;100.00;98129.91;6109995;19;20023;-73
2023/09/13 05:23:30;;;;;;;7.90;5.65;;;;;;;14.88;100.00;98138.56;6109892;19;20039;-73
2023/09/13 05:25:31;;;;;;;7.53;5.55;;;;;;;14.90;100.00;98143.75;6108430;19;20016;-74
2023/09/13 05:27:31;;;;;;;8.65;5.28;;;;;;;14.94;100.00;98136.13;6108386;19;20006;-74
2023/09/13 05:29:32;;;;;;;7.25;4.93;;;;;;;14.96;100.00;98128.13;6108050;19;20012;-73
2023/09/13 05:31:32;;;;;;;9.70;4.85;;;;;;;14.99;100.00;98129.31;6109487;19;20086;-74
2023/09/13 05:33:33;;;;;;;6.32;4.78;;;;;;;15.01;100.00;98132.47;6110005;19;20378;-74
2023/09/13 05:35:34;;;;;;;7.03;4.70;;;;;;;15.08;100.00;98129.59;6108101;19;20543;-74
2023/09/13 05:37:34;;;;;;;11.75;4.55;;;;;;;15.11;100.00;98123.97;6107243;19;20007;-74
2023/09/13 05:39:34;;;;;;;10.25;5.00;;;;;;;15.15;100.00;98127.53;6108355;19;20007;-74
2023/09/13 05:41:35;;;;;;;6.90;4.90;;;;;;;15.18;100.00;98139.81;6108387;19;20093;-74
2023/09/13 05:43:36;;;;;;;8.43;4.57;;;;;;;15.24;100.00;98138.16;6110013;19;19999;-74
2023/09/13 05:45:36;;;;;;;7.90;4.47;;;;;;;15.26;100.00;98144.09;6107488;19;20094;-74
2023/09/13 05:47:36;;;;;;;6.03;4.43;;;;;;;15.32;100.00;98152.81;6108104;19;20261;-74
2023/09/13 05:49:37;;;;;;;6.25;4.43;;;;;;;15.34;100.00;98151.16;6108774;19;20054;-74
2023/09/13 05:51:37;;;;;;;9.10;5.20;;;;;;;15.41;100.00;98151.06;6108767;19;20018;-74
2023/09/13 05:53:38;;;;;;;7.30;5.10;;;;;;;15.48;100.00;98152.19;6109995;19;20341;-74
2023/09/13 05:55:38;;;;;;;7.68;4.80;;;;;;;15.66;100.00;98169.50;6111114;19;20007;-74
2023/09/13 05:57:38;;;;;;;7.97;5.25;;;;;;;15.79;100.00;98173.28;6111450;19;20011;-73
2023/09/13 05:59:39;;;;;;;8.10;5.32;;;;;;;15.89;100.00;98180.72;6114082;19;20007;-74
2023/09/13 06:01:40;;;;;;;8.55;5.22;;;;;;;15.99;100.00;98179.00;6114393;19;20011;-73
2023/09/13 06:03:40;;;;;;;7.10;5.13;;;;;;;16.13;100.00;98173.16;6114210;19;20010;-74
2023/09/13 06:05:41;;;;;;;8.07;4.72;;;;;;;16.25;100.00;98177.41;6112991;19;19999;-74
2023/09/13 06:07:42;;;;;;;5.63;4.10;;;;;;;16.35;100.00;98192.38;6113072;19;20006;-74
2023/09/13 06:09:42;;;;;;;6.97;4.63;;;;;;;16.39;100.00;98184.75;6114463;19;20034;-74
2023/09/13 06:11:42;;;;;;;6.43;4.10;;;;;;;16.48;100.00;98187.78;6112614;19;20069;-74
2023/09/13 06:13:43;;;;;;;5.57;4.20;;;;;;;16.52;100.00;98186.50;6113988;19;20021;-74
2023/09/13 06:15:43;;;;;;;4.65;3.78;;;;;;;16.60;100.00;98186.38;6111648;19;20470;-74
2023/09/13 06:17:44;;;;;;;4.97;4.28;;;;;;;16.61;100.00;98179.59;6112514;19;20011;-74
2023/09/13 06:19:45;;;;;;;5.95;4.40;;;;;;;16.69;100.00;98186.66;6111415;19;20086;-74
2023/09/13 06:21:46;;;;;;;5.22;3.97;;;;;;;16.71;100.00;98182.22;6114781;19;20312;-74
2023/09/13 06:23:49;;;;;;;6.63;4.00;;;;;;;16.76;100.00;98184.53;6112331;19;20014;-74
2023/09/13 06:25:49;;;;;;;6.38;4.60;;;;;;;16.87;100.00;98191.91;6112047;19;20009;-74
2023/09/13 06:27:50;;;;;;;5.82;4.28;;;;;;;16.87;100.00;98195.50;6113132;19;20002;-74
2023/09/13 06:29:50;;;;;;;4.68;3.95;;;;;;;16.92;100.00;98197.81;6111777;19;20006;-73
2023/09/13 06:31:53;;;;;;;5.00;4.15;;;;;;;16.98;100.00;98210.09;6113580;19;20515;-74
2023/09/13 06:33:53;;;;;;;7.63;4.32;;;;;;;17.04;100.00;98196.38;6113754;19;20007;-74
2023/09/13 06:35:56;;;;;;;5.82;4.75;;;;;;;17.12;100.00;98200.63;6112294;19;20027;-74
2023/09/13 06:37:56;;;;;;;6.50;4.63;;;;;;;17.19;100.00;98211.66;6107864;19;20003;-74
2023/09/13 06:39:58;;;;;;;7.75;4.68;;;;;;;17.23;100.00;98208.81;6111419;19;20522;-74
2023/09/13 06:41:58;;;;;;;8.77;5.88;;;;;;;17.25;100.00;98207.16;6113422;19;20014;-74
2023/09/13 06:43:58;;;;;;;10.65;7.55;;;;;;;17.27;100.00;98213.09;6115067;19;20078;-74
2023/09/13 06:45:59;;;;;;;7.13;5.70;;;;;;;17.28;100.00;98213.91;6112434;19;20011;-74
2023/09/13 06:47:59;;;;;;;5.75;5.07;;;;;;;17.28;100.00;98217.47;6110925;19;20005;-74
2023/09/13 06:50:00;;;;;;;6.15;4.57;;;;;;;17.27;100.00;98217.91;6106248;19;20358;-74
2023/09/13 06:52:00;;;;;;;6.95;4.88;;;;;;;17.28;100.00;98222.28;6112681;19;20042;-74
2023/09/13 06:54:01;;;;;;;6.88;4.47;;;;;;;17.30;100.00;98222.66;6112784;19;20003;-74
2023/09/13 06:56:02;;;;;;;5.53;4.45;;;;;;;17.29;100.00;98219.06;6110887;19;20010;-74
2023/09/13 06:58:07;;;;;;;6.60;4.20;;;;;;;17.32;100.00;98221.00;6110332;19;20033;-74
2023/09/13 07:00:08;;;;;;;6.53;4.53;;;;;;;17.32;100.00;98218.22;6110797;19;20010;-74
2023/09/13 07:02:08;;;;;;;7.85;4.50;;;;;;;17.36;100.00;98218.13;6111015;19;20010;-74
2023/09/13 07:04:09;;;;;;;6.75;4.75;;;;;;;17.41;100.00;98217.66;6111302;19;19999;-74
2023/09/13 07:06:11;;;;;;;9.63;5.43;;;;;;;17.45;100.00;98218.34;6109843;19;20010;-74
2023/09/13 07:08:11;;;;;;;7.25;4.93;;;;;;;17.56;100.00;98223.75;6109783;19;20013;-74
2023/09/13 07:10:12;;;;;;;10.73;6.07;;;;;;;17.60;100.00;98228.03;6111332;19;20010;-74
2023/09/13 07:12:12;;;;;;;9.05;6.45;;;;;;;17.64;100.00;98219.59;6112636;19;20033;-74
2023/09/13 07:14:13;;;;;;;9.45;6.43;;;;;;;17.70;100.00;98223.44;6112500;19;20363;-74
2023/09/13 07:16:13;;;;;;;10.35;7.93;;;;;;;17.74;100.00;98229.00;6112445;19;19998;-73
2023/09/13 07:18:14;;;;;;;8.95;6.53;;;;;;;17.77;100.00;98237.31;6109264;19;20070;-73
2023/09/13 07:20:14;;;;;;;8.32;6.53;;;;;;;17.78;100.00;98236.06;6111762;19;20010;-74
2023/09/13 07:22:15;;;;;;;8.95;7.13;;;;;;;17.88;100.00;98246.28;6113062;19;20003;-74
2023/09/13 07:24:16;;;;;;;10.88;7.30;;;;;;;18.06;100.00;98250.69;6110342;19;19999;-74
2023/09/13 07:26:17;;;;;;;10.85;7.40;;;;;;;18.15;100.00;98251.66;6112567;19;20025;-74
2023/09/13 07:28:17;;;;;;;10.50;8.23;;;;;;;18.23;100.00;98250.28;6110798;19;20351;-74
2023/09/13 07:30:18;;;;;;;9.90;7.05;;;;;;;18.35;100.00;98248.81;6111354;19;20002;-73
2023/09/13 07:32:19;;;;;;;10.63;7.95;;;;;;;18.39;100.00;98251.53;6108888;19;20013;-74
2023/09/13 07:34:20;;;;;;;11.55;7.93;;;;;;;18.46;100.00;98245.78;6111751;19;20020;-74
2023/09/13 07:36:22;;;;;;;11.75;7.72;;;;;;;18.58;100.00;98247.88;6111584;19;20006;-73
2023/09/13 07:38:23;;;;;;;;;;;;;;;18.74;100.00;98247.91;6107193;19;20007;-73
2023/09/13 07:40:23;;;;;;;9.80;7.20;;;;;;;18.77;100.00;98254.63;6112062;19;19988;-74
2023/09/13 07:42:23;;;;;;;8.30;6.43;;;;;;;18.72;100.00;98246.78;6111950;19;20345;-74
2023/09/13 07:44:24;;;;;;;9.75;7.00;;;;;;;18.72;100.00;98247.56;6111861;19;20387;-73
2023/09/13 07:46:24;;;;;;;8.90;7.25;;;;;;;18.83;100.00;98243.69;6110674;19;20007;-73
2023/09/13 07:48:26;;;;;;;8.88;7.18;;;;;;;18.91;100.00;98254.28;6109904;19;20209;-73
2023/09/13 07:50:31;;;;;;;8.60;7.35;;;;;;;18.93;100.00;98257.44;6111289;19;20018;-74
2023/09/13 07:52:31;;;;;;;10.05;6.95;;;;;;;18.95;100.00;98252.19;6109419;19;20557;-74
2023/09/13 07:54:31;;;;;;;10.90;6.93;;;;;;;18.93;100.00;98257.44;6109721;19;20007;-74
2023/09/13 07:56:33;;;;;;;8.68;6.25;;;;;;;18.91;100.00;98265.50;6109742;19;20359;-74
2023/09/13 07:58:33;;;;;;;7.80;5.38;;;;;;;18.90;100.00;98269.53;6106218;19;20014;-74
2023/09/13 08:00:35;;;;;;;5.90;5.13;;;;;;;18.87;100.00;98273.22;6109547;19;20010;-74
2023/09/13 08:02:35;;;;;;;7.07;4.55;;;;;;;18.82;100.00;98265.31;6107734;19;19998;-73
2023/09/13 08:04:36;;;;;;;5.75;4.68;;;;;;;18.76;100.00;98264.28;6107833;19;20116;-74
2023/09/13 08:06:36;;;;;;;5.40;4.57;;;;;;;18.79;100.00;98271.81;6108401;19;20851;-74
2023/09/13 08:08:36;;;;;;;7.57;4.95;;;;;;;18.80;100.00;98279.00;6107578;19;20014;-73
2023/09/13 08:10:40;;;;;;;7.75;5.30;;;;;;;18.83;100.00;98275.31;6109651;19;20022;-73
2023/09/13 08:12:41;;;;;;;8.18;5.30;;;;;;;18.85;100.00;98278.44;6108414;19;20377;-74
2023/09/13 08:14:41;;;;;;;6.13;5.18;;;;;;;18.91;100.00;98287.91;6108689;19;20346;-73
2023/09/13 08:16:42;;;;;;;6.68;4.97;;;;;;;18.98;100.00;98293.34;6108067;19;20070;-74
2023/09/13 08:18:42;;;;;;;6.22;4.97;;;;;;;19.06;100.00;98299.56;6105578;19;20011;-74
2023/09/13 08:20:42;;;;;;;5.38;4.63;;;;;;;19.01;100.00;98294.47;6108965;19;20010;-73
2023/09/13 08:22:43;;;;;;;6.05;4.85;;;;;;;19.05;100.00;98295.97;6107770;19;20607;-74
2023/09/13 08:24:43;;;;;;;7.85;5.72;;;;;;;19.04;100.00;98296.44;6107830;19;20474;-74
2023/09/13 08:26:44;;;;;;;6.20;5.07;;;;;;;19.05;100.00;98303.59;6109084;19;20365;-73
2023/09/13 08:28:45;;;;;;;6.28;4.95;;;;;;;19.04;100.00;98293.63;6107584;19;20485;-73
2023/09/13 08:30:45;;;;;;;5.95;4.97;;;;;;;19.07;100.00;98290.72;6108901;19;20015;-73
2023/09/13 08:32:45;;;;;;;6.25;4.93;;;;;;;19.14;100.00;98292.56;6107034;19;20006;-74
2023/09/13 08:34:46;;;;;;;6.75;4.45;;;;;;;19.19;100.00;98306.03;6107881;19;20385;-74
2023/09/13 08:36:46;;;;;;;6.68;4.97;;;;;;;19.28;100.00;98305.41;6106601;19;20010;-74
2023/09/13 08:38:46;;;;;;;4.90;4.35;;;;;;;19.35;100.00;98310.81;6103877;19;20335;-74
2023/09/13 08:40:47;;;;;;;6.40;4.65;;;;;;;19.46;100.00;98319.75;6108084;19;20361;-74
2023/09/13 08:42:48;;;;;;;5.00;4.32;;;;;;;19.42;100.00;98313.44;6109075;19;20027;-73
2023/09/13 08:44:49;;;;;;;6.45;4.57;;;;;;;19.50;100.00;98319.66;6106409;19;20354;-74
2023/09/13 08:46:56;;;;;;;10.30;4.85;;;;;;;19.55;100.00;98317.09;6106863;19;20010;-74
2023/09/13 08:48:57;;;;;;;6.75;5.00;;;;;;;19.62;100.00;98330.19;6106256;19;20030;-74
2023/09/13 08:50:59;;;;;;;7.13;5.18;;;;;;;19.73;100.00;98330.69;6106645;19;20003;-74
2023/09/13 08:53:00;;;;;;;5.45;4.93;;;;;;;19.81;100.00;98320.03;6109167;19;20037;-73
2023/09/13 08:55:01;;;;;;;5.97;4.80;;;;;;;19.95;100.00;98330.09;6108277;19;20320;-74
2023/09/13 08:57:02;;;;;;;6.97;4.53;;;;;;;20.09;100.00;98338.09;6109639;19;20026;-74
2023/09/13 08:59:03;;;;;;;7.50;4.85;;;;;;;20.15;100.00;98336.31;6107626;19;20030;-74
2023/09/13 09:01:09;;;;;;;6.38;4.50;;;;;;;20.16;100.00;98341.47;6110984;19;20009;-74
2023/09/13 09:03:12;;;;;;;5.78;4.78;;;;;;;19.98;100.00;98335.59;6109387;19;20003;-73
2023/09/13 09:05:15;;;;;;;7.70;5.57;;;;;;;20.11;100.00;98335.63;6106276;19;20010;-74
2023/09/13 09:07:18;;;;;;;8.02;5.65;;;;;;;20.13;100.00;98350.03;6108599;19;20002;-74
2023/09/13 09:09:20;;;;;;;7.32;5.85;;;;;;;20.07;100.00;98352.56;6107986;19;20047;-74
2023/09/13 09:11:25;;;;;;;8.93;6.70;;;;;;;20.08;100.00;98353.38;6108509;19;20002;-74
2023/09/13 09:13:27;;;;;;;8.00;5.60;;;;;;;20.05;100.00;98346.63;6107950;19;20058;-74
2023/09/13 09:15:30;;;;;;;;;;;;;;;20.04;100.00;98355.50;6110748;19;20300;-74
2023/09/13 09:17:31;;;;;;;7.70;6.05;;;;;;;20.11;100.00;98356.09;6107113;19;20248;-74
2023/09/13 09:19:32;;;;;;;8.70;6.23;;;;;;;20.13;100.00;98350.81;6107673;19;20479;-73
2023/09/13 09:21:35;;;;;;;8.77;6.22;;;;;;;20.17;100.00;98350.69;6109029;19;19999;-74
2023/09/13 09:23:38;;;;;;;9.85;6.80;;;;;;;20.22;100.00;98360.59;6108581;19;20014;-74